sensor_id;sensor_type;location;lat;lon;timestamp;pressure;altitude;pressure_sealevel;temperature;humidity
73101;BME280;61288;53.446;-2.266;2023-04-04T00:01:24;102671.47;;;4.63;77.84
73101;BME280;61288;53.446;-2.266;2023-04-04T00:03:50;102660.31;;;4.61;77.61
73101;BME280;61288;53.446;-2.266;2023-04-04T00:06:17;102672.28;;;4.59;78.00
73101;BME280;61288;53.446;-2.266;2023-04-04T00:08:46;102668.88;;;4.60;77.31
73101;BME280;61288;53.446;-2.266;2023-04-04T00:11:11;102670.53;;;4.58;76.56
73101;BME280;61288;53.446;-2.266;2023-04-04T00:13:39;102662.81;;;4.57;76.07
73101;BME280;61288;53.446;-2.266;2023-04-04T00:16:05;102665.38;;;4.57;75.31
73101;BME280;61288;53.446;-2.266;2023-04-04T00:18:31;102672.19;;;4.53;74.97
73101;BME280;61288;53.446;-2.266;2023-04-04T00:20:57;102672.94;;;4.47;74.88
73101;BME280;61288;53.446;-2.266;2023-04-04T00:23:22;102674.59;;;4.45;74.40
73101;BME280;61288;53.446;-2.266;2023-04-04T00:25:52;102667.69;;;4.41;74.53
73101;BME280;61288;53.446;-2.266;2023-04-04T00:28:19;102677.94;;;4.40;73.76
73101;BME280;61288;53.446;-2.266;2023-04-04T00:30:45;102671.91;;;4.36;73.24
73101;BME280;61288;53.446;-2.266;2023-04-04T00:33:12;102677.81;;;4.33;73.10
73101;BME280;61288;53.446;-2.266;2023-04-04T00:35:38;102683.78;;;4.31;72.82
73101;BME280;61288;53.446;-2.266;2023-04-04T00:38:03;102675.16;;;4.27;72.20
73101;BME280;61288;53.446;-2.266;2023-04-04T00:40:28;102676.84;;;4.25;72.11
73101;BME280;61288;53.446;-2.266;2023-04-04T00:42:54;102675.91;;;4.22;71.20
73101;BME280;61288;53.446;-2.266;2023-04-04T00:45:20;102681.84;;;4.19;71.79
73101;BME280;61288;53.446;-2.266;2023-04-04T00:47:45;102680.06;;;4.15;71.32
73101;BME280;61288;53.446;-2.266;2023-04-04T00:50:12;102674.84;;;4.10;70.75
73101;BME280;61288;53.446;-2.266;2023-04-04T00:52:37;102670.47;;;4.04;71.62
73101;BME280;61288;53.446;-2.266;2023-04-04T00:55:03;102675.53;;;4.00;70.65
73101;BME280;61288;53.446;-2.266;2023-04-04T00:57:29;102673.75;;;3.97;70.92
73101;BME280;61288;53.446;-2.266;2023-04-04T00:59:58;102667.69;;;3.92;70.42
73101;BME280;61288;53.446;-2.266;2023-04-04T01:02:24;102671.03;;;3.88;70.11
73101;BME280;61288;53.446;-2.266;2023-04-04T01:04:50;102664.97;;;3.84;71.05
73101;BME280;61288;53.446;-2.266;2023-04-04T01:07:17;102666.59;;;3.81;70.27
73101;BME280;61288;53.446;-2.266;2023-04-04T01:09:43;102672.47;;;3.75;70.08
73101;BME280;61288;53.446;-2.266;2023-04-04T01:12:09;102673.28;;;3.72;70.04
73101;BME280;61288;53.446;-2.266;2023-04-04T01:14:34;102665.53;;;3.69;70.05
73101;BME280;61288;53.446;-2.266;2023-04-04T01:17:01;102668.91;;;3.67;69.23
73101;BME280;61288;53.446;-2.266;2023-04-04T01:19:31;102658.53;;;3.62;69.19
73101;BME280;61288;53.446;-2.266;2023-04-04T01:21:59;102661.88;;;3.58;69.07
73101;BME280;61288;53.446;-2.266;2023-04-04T01:24:32;102662.66;;;3.54;68.69
73101;BME280;61288;53.446;-2.266;2023-04-04T01:26:58;102658.31;;;3.50;69.00
73101;BME280;61288;53.446;-2.266;2023-04-04T01:29:25;102662.44;;;3.44;68.93
73101;BME280;61288;53.446;-2.266;2023-04-04T01:31:59;102672.63;;;3.40;69.23
73101;BME280;61288;53.446;-2.266;2023-04-04T01:39:41;102655.28;;;3.28;69.32
73101;BME280;61288;53.446;-2.266;2023-04-04T01:42:08;102645.75;;;3.22;69.16
73101;BME280;61288;53.446;-2.266;2023-04-04T01:44:34;102643.94;;;3.16;69.23
73101;BME280;61288;53.446;-2.266;2023-04-04T01:47:06;102640.41;;;3.11;68.39
73101;BME280;61288;53.446;-2.266;2023-04-04T01:49:33;102643.72;;;3.06;68.66
73101;BME280;61288;53.446;-2.266;2023-04-04T01:51:58;102636.78;;;3.01;68.75
73101;BME280;61288;53.446;-2.266;2023-04-04T01:54:24;102643.53;;;2.98;69.13
73101;BME280;61288;53.446;-2.266;2023-04-04T01:56:52;102640.84;;;2.93;69.18
73101;BME280;61288;53.446;-2.266;2023-04-04T01:59:17;102646.78;;;2.91;68.86
73101;BME280;61288;53.446;-2.266;2023-04-04T02:01:43;102642.44;;;2.86;68.94
73101;BME280;61288;53.446;-2.266;2023-04-04T02:04:09;102641.53;;;2.84;69.03
73101;BME280;61288;53.446;-2.266;2023-04-04T02:06:37;102637.13;;;2.80;69.09
73101;BME280;61288;53.446;-2.266;2023-04-04T02:09:02;102635.41;;;2.78;69.20
73101;BME280;61288;53.446;-2.266;2023-04-04T02:11:28;102638.72;;;2.75;68.75
73101;BME280;61288;53.446;-2.266;2023-04-04T02:13:54;102637.81;;;2.71;69.20
73101;BME280;61288;53.446;-2.266;2023-04-04T02:16:19;102640.31;;;2.70;69.09
73101;BME280;61288;53.446;-2.266;2023-04-04T02:18:45;102631.72;;;2.66;69.27
73101;BME280;61288;53.446;-2.266;2023-04-04T02:21:11;102641.91;;;2.65;69.20
73101;BME280;61288;53.446;-2.266;2023-04-04T02:23:41;102635.84;;;2.61;69.45
73101;BME280;61288;53.446;-2.266;2023-04-04T02:26:07;102640.00;;;2.56;69.31
73101;BME280;61288;53.446;-2.266;2023-04-04T02:28:32;102644.22;;;2.54;69.64
73101;BME280;61288;53.446;-2.266;2023-04-04T02:30:59;102643.28;;;2.50;69.58
73101;BME280;61288;53.446;-2.266;2023-04-04T02:33:27;102639.78;;;2.48;69.70
73101;BME280;61288;53.446;-2.266;2023-04-04T02:35:56;102634.59;;;2.45;69.53
73101;BME280;61288;53.446;-2.266;2023-04-04T02:38:22;102631.16;;;2.43;69.59
73101;BME280;61288;53.446;-2.266;2023-04-04T02:40:48;102630.25;;;2.41;69.68
73101;BME280;61288;53.446;-2.266;2023-04-04T02:43:13;102624.22;;;2.39;69.79
73101;BME280;61288;53.446;-2.266;2023-04-04T02:45:40;102626.72;;;2.36;70.02
73101;BME280;61288;53.446;-2.266;2023-04-04T02:48:06;102620.69;;;2.32;70.16
73101;BME280;61288;53.446;-2.266;2023-04-04T02:50:32;102624.84;;;2.28;70.27
73101;BME280;61288;53.446;-2.266;2023-04-04T02:53:03;102629.91;;;2.27;70.34
73101;BME280;61288;53.446;-2.266;2023-04-04T02:55:29;102628.16;;;2.24;71.08
73101;BME280;61288;53.446;-2.266;2023-04-04T02:57:55;102632.38;;;2.22;70.74
73101;BME280;61288;53.446;-2.266;2023-04-04T03:00:23;102629.72;;;2.19;71.11
73101;BME280;61288;53.446;-2.266;2023-04-04T03:02:55;102629.66;;;2.16;71.46
73101;BME280;61288;53.446;-2.266;2023-04-04T03:05:25;102633.75;;;2.11;71.04
73101;BME280;61288;53.446;-2.266;2023-04-04T03:07:54;102635.38;;;2.07;71.39
73101;BME280;61288;53.446;-2.266;2023-04-04T03:10:23;102645.56;;;2.06;71.48
73101;BME280;61288;53.446;-2.266;2023-04-04T03:12:49;102642.94;;;2.02;70.93
73101;BME280;61288;53.446;-2.266;2023-04-04T03:15:15;102641.13;;;1.98;71.95
73101;BME280;61288;53.446;-2.266;2023-04-04T03:17:40;102641.03;;;1.95;73.47
73101;BME280;61288;53.446;-2.266;2023-04-04T03:20:06;102643.53;;;1.94;72.89
73101;BME280;61288;53.446;-2.266;2023-04-04T03:22:35;102646.91;;;1.93;74.29
73101;BME280;61288;53.446;-2.266;2023-04-04T03:25:01;102639.91;;;1.85;75.09
73101;BME280;61288;53.446;-2.266;2023-04-04T03:27:30;102641.41;;;1.77;75.12
73101;BME280;61288;53.446;-2.266;2023-04-04T03:29:56;102637.88;;;1.73;74.90
73101;BME280;61288;53.446;-2.266;2023-04-04T03:32:22;102632.59;;;1.66;74.18
73101;BME280;61288;53.446;-2.266;2023-04-04T03:34:47;102626.44;;;1.59;74.65
73101;BME280;61288;53.446;-2.266;2023-04-04T03:37:13;102628.91;;;1.56;75.04
73101;BME280;61288;53.446;-2.266;2023-04-04T03:39:38;102627.09;;;1.52;74.84
73101;BME280;61288;53.446;-2.266;2023-04-04T03:42:04;102620.13;;;1.48;75.76
73101;BME280;61288;53.446;-2.266;2023-04-04T03:44:29;102622.56;;;1.43;75.96
73101;BME280;61288;53.446;-2.266;2023-04-04T03:46:55;102616.47;;;1.38;75.85
73101;BME280;61288;53.446;-2.266;2023-04-04T03:49:20;102613.78;;;1.33;76.60
73101;BME280;61288;53.446;-2.266;2023-04-04T03:51:46;102617.81;;;1.26;76.54
73101;BME280;61288;53.446;-2.266;2023-04-04T03:54:11;102614.19;;;1.18;76.45
73101;BME280;61288;53.446;-2.266;2023-04-04T03:56:37;102621.50;;;1.06;76.29
73101;BME280;61288;53.446;-2.266;2023-04-04T03:59:02;102622.03;;;0.95;76.31
73101;BME280;61288;53.446;-2.266;2023-04-04T04:01:28;102620.19;;;0.91;76.50
73101;BME280;61288;53.446;-2.266;2023-04-04T04:03:53;102622.63;;;0.86;76.88
73101;BME280;61288;53.446;-2.266;2023-04-04T04:06:19;102618.94;;;0.78;76.84
73101;BME280;61288;53.446;-2.266;2023-04-04T04:08:45;102617.09;;;0.73;77.14
73101;BME280;61288;53.446;-2.266;2023-04-04T04:11:11;102616.22;;;0.72;78.61
73101;BME280;61288;53.446;-2.266;2023-04-04T04:13:37;102608.56;;;0.72;79.21
73101;BME280;61288;53.446;-2.266;2023-04-04T04:16:03;102615.28;;;0.70;78.35
73101;BME280;61288;53.446;-2.266;2023-04-04T04:18:29;102610.91;;;0.66;78.55
73101;BME280;61288;53.446;-2.266;2023-04-04T04:20:58;102610.75;;;0.61;78.04
73101;BME280;61288;53.446;-2.266;2023-04-04T04:23:25;102612.13;;;0.50;78.12
73101;BME280;61288;53.446;-2.266;2023-04-04T04:25:51;102610.31;;;0.47;78.19
73101;BME280;61288;53.446;-2.266;2023-04-04T04:28:17;102606.81;;;0.43;79.44
73101;BME280;61288;53.446;-2.266;2023-04-04T04:33:18;102606.91;;;0.47;79.23
73101;BME280;61288;53.446;-2.266;2023-04-04T04:35:43;102602.72;;;0.49;78.89
73101;BME280;61288;53.446;-2.266;2023-04-04T04:38:09;102604.56;;;0.53;78.99
73101;BME280;61288;53.446;-2.266;2023-04-04T04:40:35;102619.00;;;0.52;78.25
73101;BME280;61288;53.446;-2.266;2023-04-04T04:43:01;102613.09;;;0.53;79.12
73101;BME280;61288;53.446;-2.266;2023-04-04T04:45:26;102614.75;;;0.53;78.48
73101;BME280;61288;53.446;-2.266;2023-04-04T04:47:52;102607.06;;;0.51;78.14
73101;BME280;61288;53.446;-2.266;2023-04-04T04:50:17;102608.75;;;0.51;78.45
73101;BME280;61288;53.446;-2.266;2023-04-04T04:52:43;102595.00;;;0.47;77.86
73101;BME280;61288;53.446;-2.266;2023-04-04T04:55:09;102593.25;;;0.45;78.13
73101;BME280;61288;53.446;-2.266;2023-04-04T04:57:37;102591.44;;;0.42;78.14
73101;BME280;61288;53.446;-2.266;2023-04-04T05:00:03;102586.31;;;0.40;78.10
73101;BME280;61288;53.446;-2.266;2023-04-04T05:02:29;102579.47;;;0.39;78.19
73101;BME280;61288;53.446;-2.266;2023-04-04T05:04:55;102571.69;;;0.35;78.37
73101;BME280;61288;53.446;-2.266;2023-04-04T05:07:21;102560.56;;;0.33;78.10
73101;BME280;61288;53.446;-2.266;2023-04-04T05:09:47;102561.31;;;0.30;78.30
73101;BME280;61288;53.446;-2.266;2023-04-04T05:12:13;102562.94;;;0.28;78.22
73101;BME280;61288;53.446;-2.266;2023-04-04T05:14:38;102563.78;;;0.27;78.68
73101;BME280;61288;53.446;-2.266;2023-04-04T05:17:04;102559.59;;;0.29;80.13
73101;BME280;61288;53.446;-2.266;2023-04-04T05:19:33;102556.19;;;0.28;79.68
73101;BME280;61288;53.446;-2.266;2023-04-04T05:21:58;102562.00;;;0.24;79.26
73101;BME280;61288;53.446;-2.266;2023-04-04T05:24:24;102562.63;;;0.17;79.68
73101;BME280;61288;53.446;-2.266;2023-04-04T05:26:49;102562.28;;;0.06;79.47
73101;BME280;61288;53.446;-2.266;2023-04-04T05:29:15;102572.94;;;-0.04;79.45
73101;BME280;61288;53.446;-2.266;2023-04-04T05:31:44;102567.91;;;-0.03;80.69
73101;BME280;61288;53.446;-2.266;2023-04-04T05:34:10;102567.09;;;-0.02;80.53
73101;BME280;61288;53.446;-2.266;2023-04-04T05:36:36;102561.25;;;0.01;80.02
73101;BME280;61288;53.446;-2.266;2023-04-04T05:39:03;102567.19;;;0.02;80.01
73101;BME280;61288;53.446;-2.266;2023-04-04T05:41:29;102567.81;;;-0.06;78.99
73101;BME280;61288;53.446;-2.266;2023-04-04T05:43:55;102573.44;;;-0.16;79.53
73101;BME280;61288;53.446;-2.266;2023-04-04T05:46:21;102573.44;;;-0.16;80.64
73101;BME280;61288;53.446;-2.266;2023-04-04T05:48:46;102570.16;;;-0.12;79.84
73101;BME280;61288;53.446;-2.266;2023-04-04T05:51:12;102565.28;;;-0.06;80.61
73101;BME280;61288;53.446;-2.266;2023-04-04T05:53:37;102561.19;;;-0.01;80.92
73101;BME280;61288;53.446;-2.266;2023-04-04T05:56:06;102568.09;;;0.02;79.93
73101;BME280;61288;53.446;-2.266;2023-04-04T05:58:31;102568.19;;;0.05;80.03
73101;BME280;61288;53.446;-2.266;2023-04-04T06:00:57;102572.31;;;0.02;79.38
73101;BME280;61288;53.446;-2.266;2023-04-04T06:03:22;102569.44;;;-0.08;79.44
73101;BME280;61288;53.446;-2.266;2023-04-04T06:05:51;102575.97;;;-0.16;79.85
73101;BME280;61288;53.446;-2.266;2023-04-04T06:08:17;102573.28;;;-0.19;80.67
73101;BME280;61288;53.446;-2.266;2023-04-04T06:10:42;102583.47;;;-0.19;81.02
73101;BME280;61288;53.446;-2.266;2023-04-04T06:13:08;102577.53;;;-0.20;80.67
73101;BME280;61288;53.446;-2.266;2023-04-04T06:15:33;102574.38;;;-0.12;81.40
73101;BME280;61288;53.446;-2.266;2023-04-04T06:17:59;102574.69;;;-0.03;81.08
73101;BME280;61288;53.446;-2.266;2023-04-04T06:20:24;102570.88;;;0.10;82.26
73101;BME280;61288;53.446;-2.266;2023-04-04T06:22:50;102584.84;;;0.21;80.90
73101;BME280;61288;53.446;-2.266;2023-04-04T06:25:16;102582.53;;;0.29;80.31
73101;BME280;61288;53.446;-2.266;2023-04-04T06:27:42;102581.13;;;0.37;80.44
73101;BME280;61288;53.446;-2.266;2023-04-04T06:30:08;102584.63;;;0.41;79.87
73101;BME280;61288;53.446;-2.266;2023-04-04T06:32:37;102585.88;;;0.54;79.51
73101;BME280;61288;53.446;-2.266;2023-04-04T06:35:03;102597.81;;;0.82;79.63
73101;BME280;61288;53.446;-2.266;2023-04-04T06:37:29;102594.72;;;0.93;78.60
73101;BME280;61288;53.446;-2.266;2023-04-04T06:39:55;102606.38;;;1.13;79.01
73101;BME280;61288;53.446;-2.266;2023-04-04T06:42:21;102606.22;;;2.00;75.57
73101;BME280;61288;53.446;-2.266;2023-04-04T06:44:48;102609.84;;;2.81;73.07
73101;BME280;61288;53.446;-2.266;2023-04-04T06:47:13;102609.84;;;3.64;69.90
73101;BME280;61288;53.446;-2.266;2023-04-04T06:49:42;102603.53;;;4.43;66.85
73101;BME280;61288;53.446;-2.266;2023-04-04T06:52:07;102611.72;;;5.40;63.73
73101;BME280;61288;53.446;-2.266;2023-04-04T06:54:35;102609.88;;;6.05;61.17
73101;BME280;61288;53.446;-2.266;2023-04-04T06:57:01;102625.66;;;6.47;59.76
73101;BME280;61288;53.446;-2.266;2023-04-04T06:59:27;102615.34;;;6.46;59.49
73101;BME280;61288;53.446;-2.266;2023-04-04T07:01:52;102615.16;;;6.18;58.87
73101;BME280;61288;53.446;-2.266;2023-04-04T07:04:18;102613.84;;;5.78;59.72
73101;BME280;61288;53.446;-2.266;2023-04-04T07:06:44;102621.16;;;5.41;60.93
73101;BME280;61288;53.446;-2.266;2023-04-04T07:09:09;102624.19;;;5.08;61.49
73101;BME280;61288;53.446;-2.266;2023-04-04T07:11:36;102628.13;;;4.82;62.83
73101;BME280;61288;53.446;-2.266;2023-04-04T07:14:01;102622.56;;;4.54;62.65
73101;BME280;61288;53.446;-2.266;2023-04-04T07:16:27;102618.03;;;4.39;63.83
73101;BME280;61288;53.446;-2.266;2023-04-04T07:18:52;102617.91;;;4.31;63.50
73101;BME280;61288;53.446;-2.266;2023-04-04T07:21:18;102615.28;;;4.28;64.16
73101;BME280;61288;53.446;-2.266;2023-04-04T07:23:44;102614.25;;;4.18;64.35
73101;BME280;61288;53.446;-2.266;2023-04-04T07:26:10;102608.16;;;4.10;65.09
73101;BME280;61288;53.446;-2.266;2023-04-04T07:28:36;102606.28;;;4.01;65.88
73101;BME280;61288;53.446;-2.266;2023-04-04T07:31:01;102599.31;;;3.96;65.57
73101;BME280;61288;53.446;-2.266;2023-04-04T07:33:27;102599.09;;;3.82;66.41
73101;BME280;61288;53.446;-2.266;2023-04-04T07:35:53;102603.16;;;3.70;66.41
73101;BME280;61288;53.446;-2.266;2023-04-04T07:38:19;102603.13;;;3.69;66.73
73101;BME280;61288;53.446;-2.266;2023-04-04T07:40:44;102603.09;;;3.66;66.74
73101;BME280;61288;53.446;-2.266;2023-04-04T07:43:10;102602.19;;;3.65;66.35
73101;BME280;61288;53.446;-2.266;2023-04-04T07:45:36;102600.53;;;3.67;67.04
73101;BME280;61288;53.446;-2.266;2023-04-04T07:48:01;102598.00;;;3.69;66.18
73101;BME280;61288;53.446;-2.266;2023-04-04T07:50:27;102593.72;;;3.69;67.72
73101;BME280;61288;53.446;-2.266;2023-04-04T07:52:52;102590.50;;;3.80;67.07
73101;BME280;61288;53.446;-2.266;2023-04-04T07:55:20;102582.34;;;4.01;66.41
73101;BME280;61288;53.446;-2.266;2023-04-04T07:57:49;102586.69;;;4.05;67.19
73101;BME280;61288;53.446;-2.266;2023-04-04T08:00:15;102579.19;;;4.16;65.21
73101;BME280;61288;53.446;-2.266;2023-04-04T08:02:47;102578.44;;;4.25;65.09
73101;BME280;61288;53.446;-2.266;2023-04-04T08:05:17;102575.28;;;4.41;64.97
73101;BME280;61288;53.446;-2.266;2023-04-04T08:07:43;102576.44;;;4.60;64.96
73101;BME280;61288;53.446;-2.266;2023-04-04T08:10:08;102579.19;;;4.74;64.21
73101;BME280;61288;53.446;-2.266;2023-04-04T08:12:35;102578.34;;;4.75;63.09
73101;BME280;61288;53.446;-2.266;2023-04-04T08:15:01;102574.16;;;4.81;63.83
73101;BME280;61288;53.446;-2.266;2023-04-04T08:17:27;102573.69;;;5.13;62.97
73101;BME280;61288;53.446;-2.266;2023-04-04T08:19:52;102561.94;;;5.32;61.14
73101;BME280;61288;53.446;-2.266;2023-04-04T08:22:18;102560.56;;;5.65;60.25
73101;BME280;61288;53.446;-2.266;2023-04-04T08:24:44;102568.97;;;6.38;60.19
73101;BME280;61288;53.446;-2.266;2023-04-04T08:27:10;102560.84;;;7.34;57.73
73101;BME280;61288;53.446;-2.266;2023-04-04T08:29:36;102558.34;;;8.30;54.86
73101;BME280;61288;53.446;-2.266;2023-04-04T08:32:02;102552.94;;;9.19;51.45
73101;BME280;61288;53.446;-2.266;2023-04-04T08:34:28;102549.88;;;9.93;50.16
73101;BME280;61288;53.446;-2.266;2023-04-04T08:36:54;102547.47;;;10.68;48.38
73101;BME280;61288;53.446;-2.266;2023-04-04T08:39:19;102551.38;;;11.04;47.61
73101;BME280;61288;53.446;-2.266;2023-04-04T08:41:45;102544.16;;;11.27;45.20
73101;BME280;61288;53.446;-2.266;2023-04-04T08:44:15;102547.53;;;11.33;46.16
73101;BME280;61288;53.446;-2.266;2023-04-04T08:46:46;102550.88;;;11.99;44.70
73101;BME280;61288;53.446;-2.266;2023-04-04T08:49:14;102545.53;;;11.52;46.31
73101;BME280;61288;53.446;-2.266;2023-04-04T08:51:42;102550.47;;;11.69;44.68
73101;BME280;61288;53.446;-2.266;2023-04-04T08:54:10;102540.97;;;11.69;45.47
73101;BME280;61288;53.446;-2.266;2023-04-04T08:56:37;102538.75;;;12.01;43.45
73101;BME280;61288;53.446;-2.266;2023-04-04T08:59:02;102543.56;;;11.69;44.28
73101;BME280;61288;53.446;-2.266;2023-04-04T09:01:29;102535.78;;;11.68;42.50
73101;BME280;61288;53.446;-2.266;2023-04-04T09:03:57;102532.72;;;10.74;45.02
73101;BME280;61288;53.446;-2.266;2023-04-04T09:06:23;102524.88;;;11.46;43.60
73101;BME280;61288;53.446;-2.266;2023-04-04T09:08:51;102535.88;;;11.62;41.69
73101;BME280;61288;53.446;-2.266;2023-04-04T09:11:21;102527.06;;;11.72;43.06
73101;BME280;61288;53.446;-2.266;2023-04-04T09:13:50;102535.34;;;11.39;42.23
73101;BME280;61288;53.446;-2.266;2023-04-04T09:16:19;102525.44;;;11.65;43.37
73101;BME280;61288;53.446;-2.266;2023-04-04T09:18:45;102522.19;;;11.52;42.94
73101;BME280;61288;53.446;-2.266;2023-04-04T09:21:11;102534.94;;;11.05;44.41
73101;BME280;61288;53.446;-2.266;2023-04-04T09:23:37;102535.50;;;11.29;45.12
73101;BME280;61288;53.446;-2.266;2023-04-04T09:26:04;102531.19;;;11.26;43.83
73101;BME280;61288;53.446;-2.266;2023-04-04T09:28:30;102530.00;;;11.49;43.12
73101;BME280;61288;53.446;-2.266;2023-04-04T09:30:55;102527.94;;;11.71;41.19
73101;BME280;61288;53.446;-2.266;2023-04-04T09:33:24;102517.44;;;11.79;40.47
73101;BME280;61288;53.446;-2.266;2023-04-04T09:36:12;102525.50;;;12.17;41.38
73101;BME280;61288;53.446;-2.266;2023-04-04T09:38:39;102522.41;;;12.43;41.55
73101;BME280;61288;53.446;-2.266;2023-04-04T09:41:13;102521.94;;;12.21;39.18
73101;BME280;61288;53.446;-2.266;2023-04-04T09:43:40;102525.88;;;12.44;40.35
73101;BME280;61288;53.446;-2.266;2023-04-04T09:46:05;102529.44;;;12.36;42.76
73101;BME280;61288;53.446;-2.266;2023-04-04T09:48:33;102530.00;;;12.96;41.23
73101;BME280;61288;53.446;-2.266;2023-04-04T09:51:11;102529.44;;;13.97;38.81
73101;BME280;61288;53.446;-2.266;2023-04-04T09:53:38;102520.56;;;14.06;39.50
73101;BME280;61288;53.446;-2.266;2023-04-04T09:56:06;102528.88;;;14.52;37.71
73101;BME280;61288;53.446;-2.266;2023-04-04T09:58:31;102520.34;;;13.79;37.21
73101;BME280;61288;53.446;-2.266;2023-04-04T10:01:01;102526.00;;;13.96;38.89
73101;BME280;61288;53.446;-2.266;2023-04-04T10:03:28;102522.38;;;13.67;39.05
73101;BME280;61288;53.446;-2.266;2023-04-04T10:05:58;102516.69;;;13.50;39.12
73101;BME280;61288;53.446;-2.266;2023-04-04T10:08:26;102524.75;;;14.11;38.41
73101;BME280;61288;53.446;-2.266;2023-04-04T10:11:04;102528.63;;;14.61;38.29
73101;BME280;61288;53.446;-2.266;2023-04-04T10:13:32;102520.94;;;14.88;37.10
73101;BME280;61288;53.446;-2.266;2023-04-04T10:16:00;102506.78;;;15.24;35.38
73101;BME280;61288;53.446;-2.266;2023-04-04T10:18:31;102512.28;;;14.86;37.24
73101;BME280;61288;53.446;-2.266;2023-04-04T10:20:58;102504.25;;;14.62;36.63
73101;BME280;61288;53.446;-2.266;2023-04-04T10:23:25;102502.78;;;14.83;37.52
73101;BME280;61288;53.446;-2.266;2023-04-04T10:26:01;102503.25;;;14.98;34.85
73101;BME280;61288;53.446;-2.266;2023-04-04T10:28:27;102507.63;;;14.66;36.16
73101;BME280;61288;53.446;-2.266;2023-04-04T10:31:05;102500.88;;;14.58;37.72
73101;BME280;61288;53.446;-2.266;2023-04-04T10:36:10;102485.50;;;15.08;35.24
73101;BME280;61288;53.446;-2.266;2023-04-04T10:38:54;102485.88;;;14.65;38.21
73101;BME280;61288;53.446;-2.266;2023-04-04T10:41:25;102479.94;;;14.92;35.66
73101;BME280;61288;53.446;-2.266;2023-04-04T10:43:54;102479.94;;;15.20;36.21
73101;BME280;61288;53.446;-2.266;2023-04-04T10:46:22;102477.41;;;14.58;36.02
73101;BME280;61288;53.446;-2.266;2023-04-04T10:48:56;102480.25;;;14.81;36.85
73101;BME280;61288;53.446;-2.266;2023-04-04T10:51:24;102484.75;;;14.44;37.13
73101;BME280;61288;53.446;-2.266;2023-04-04T10:53:52;102473.66;;;14.97;36.03
73101;BME280;61288;53.446;-2.266;2023-04-04T10:56:18;102484.56;;;14.50;35.09
73101;BME280;61288;53.446;-2.266;2023-04-04T10:58:44;102485.31;;;14.24;36.50
73101;BME280;61288;53.446;-2.266;2023-04-04T11:01:09;102483.28;;;14.65;35.62
73101;BME280;61288;53.446;-2.266;2023-04-04T11:09:55;102462.19;;;16.33;36.54
73101;BME280;61288;53.446;-2.266;2023-04-04T11:15:05;102458.22;;;14.90;35.59
73101;BME280;61288;53.446;-2.266;2023-04-04T11:17:49;102456.38;;;14.01;36.75
73101;BME280;61288;53.446;-2.266;2023-04-04T11:20:23;102447.41;;;14.43;36.53
73101;BME280;61288;53.446;-2.266;2023-04-04T11:23:03;102454.66;;;14.62;35.77
73101;BME280;61288;53.446;-2.266;2023-04-04T11:25:33;102450.53;;;14.55;38.23
73101;BME280;61288;53.446;-2.266;2023-04-04T11:33:59;102441.19;;;14.48;36.91
73101;BME280;61288;53.446;-2.266;2023-04-04T11:41:43;102426.84;;;14.93;37.31
73101;BME280;61288;53.446;-2.266;2023-04-04T11:44:12;102421.63;;;14.93;37.09
73101;BME280;61288;53.446;-2.266;2023-04-04T11:46:39;102410.19;;;14.97;34.81
73101;BME280;61288;53.446;-2.266;2023-04-04T11:49:06;102406.22;;;14.53;35.06
73101;BME280;61288;53.446;-2.266;2023-04-04T11:51:32;102404.91;;;14.68;36.12
73101;BME280;61288;53.446;-2.266;2023-04-04T11:53:58;102405.31;;;14.84;37.06
73101;BME280;61288;53.446;-2.266;2023-04-04T11:56:24;102402.47;;;14.64;34.81
73101;BME280;61288;53.446;-2.266;2023-04-04T11:58:50;102393.84;;;14.32;36.02
73101;BME280;61288;53.446;-2.266;2023-04-04T12:01:18;102390.03;;;14.43;33.19
73101;BME280;61288;53.446;-2.266;2023-04-04T12:03:45;102392.25;;;14.56;34.33
73101;BME280;61288;53.446;-2.266;2023-04-04T12:06:10;102390.97;;;14.69;31.89
73101;BME280;61288;53.446;-2.266;2023-04-04T12:08:36;102390.91;;;14.12;33.54
73101;BME280;61288;53.446;-2.266;2023-04-04T12:11:06;102393.53;;;14.12;33.41
73101;BME280;61288;53.446;-2.266;2023-04-04T12:13:41;102382.91;;;14.19;34.12
73101;BME280;61288;53.446;-2.266;2023-04-04T12:16:09;102381.00;;;14.25;33.93
73101;BME280;61288;53.446;-2.266;2023-04-04T12:18:36;102383.03;;;14.14;35.03
73101;BME280;61288;53.446;-2.266;2023-04-04T12:21:02;102376.13;;;14.73;34.37
73101;BME280;61288;53.446;-2.266;2023-04-04T12:23:36;102371.38;;;14.86;31.93
73101;BME280;61288;53.446;-2.266;2023-04-04T12:26:03;102374.78;;;14.88;32.57
73101;BME280;61288;53.446;-2.266;2023-04-04T12:28:31;102377.38;;;14.88;32.33
73101;BME280;61288;53.446;-2.266;2023-04-04T12:30:59;102380.03;;;14.86;33.50
73101;BME280;61288;53.446;-2.266;2023-04-04T12:33:33;102366.63;;;14.70;33.93
73101;BME280;61288;53.446;-2.266;2023-04-04T12:35:59;102365.63;;;15.01;35.04
73101;BME280;61288;53.446;-2.266;2023-04-04T12:38:27;102370.97;;;15.51;34.16
73101;BME280;61288;53.446;-2.266;2023-04-04T12:40:55;102370.34;;;15.44;34.25
73101;BME280;61288;53.446;-2.266;2023-04-04T12:43:20;102363.50;;;15.40;33.26
73101;BME280;61288;53.446;-2.266;2023-04-04T12:45:49;102354.69;;;15.68;32.58
73101;BME280;61288;53.446;-2.266;2023-04-04T12:48:15;102343.59;;;15.36;34.01
73101;BME280;61288;53.446;-2.266;2023-04-04T12:50:53;102349.56;;;15.65;34.96
73101;BME280;61288;53.446;-2.266;2023-04-04T12:53:24;102337.25;;;16.17;32.51
73101;BME280;61288;53.446;-2.266;2023-04-04T12:55:51;102327.56;;;16.20;30.46
73101;BME280;61288;53.446;-2.266;2023-04-04T12:58:22;102321.19;;;16.27;33.00
73101;BME280;61288;53.446;-2.266;2023-04-04T13:00:50;102323.22;;;16.42;33.41
73101;BME280;61288;53.446;-2.266;2023-04-04T13:03:21;102322.00;;;15.81;28.87
73101;BME280;61288;53.446;-2.266;2023-04-04T13:05:48;102322.38;;;15.70;31.58
73101;BME280;61288;53.446;-2.266;2023-04-04T13:08:14;102311.06;;;15.70;31.85
73101;BME280;61288;53.446;-2.266;2023-04-04T13:11:16;102316.25;;;16.19;30.56
73101;BME280;61288;53.446;-2.266;2023-04-04T13:13:43;102317.28;;;16.15;30.96
73101;BME280;61288;53.446;-2.266;2023-04-04T13:16:12;102321.81;;;15.86;30.75